Time;durP1;ratioP1;P1;durP2;ratioP2;P2;SDS_P1;SDS_P2;PMS_P1;PMS_P2;Temp;Humidity;BMP_temperature;BMP_pressure;BME280_temperature;BME280_humidity;BME280_pressure;Samples;Min_cycle;Max_cycle;Signal;HPM_P1;HPM_P2
2021/10/07 00:01:26;;;;;;;14.25;6.53;;;;;;;11.07;100.00;95260.63;10168307;29;20292;-69
2021/10/07 00:06:26;;;;;;;9.02;6.82;;;;;;;10.83;100.00;95246.81;10167727;29;20040;-69
2021/10/07 00:11:27;;;;;;;10.40;8.07;;;;;;;10.86;100.00;95240.09;10151984;29;20502;-69
2021/10/07 00:16:27;;;;;;;16.70;9.13;;;;;;;10.60;100.00;95245.34;10169001;29;20087;-69
2021/10/07 00:21:28;;;;;;;26.05;9.43;;;;;;;10.60;100.00;95242.66;10183108;29;20515;-70
2021/10/07 00:26:28;;;;;;;18.65;10.00;;;;;;;10.59;100.00;95252.59;10183034;29;20111;-69
2021/10/07 00:31:33;;;;;;;20.48;9.82;;;;;;;10.39;100.00;95241.72;10183052;29;20040;-69
2021/10/07 00:41:40;;;;;;;20.70;11.80;;;;;;;10.49;100.00;95216.78;10182390;29;20040;-71
2021/10/07 00:46:52;;;;;;;18.55;11.10;;;;;;;10.46;100.00;95233.44;10182673;29;20040;-73
2021/10/07 00:51:53;;;;;;;23.30;10.90;;;;;;;10.38;100.00;95224.81;10166666;29;20776;-68
2021/10/07 00:56:55;;;;;;;18.80;11.32;;;;;;;10.44;100.00;95217.59;10167546;29;20083;-74
2021/10/07 01:01:55;;;;;;;18.33;11.05;;;;;;;10.53;100.00;95204.47;10165765;29;20487;-69
2021/10/07 01:06:56;;;;;;;17.23;9.88;;;;;;;10.58;100.00;95213.34;10166980;29;20120;-71
2021/10/07 01:11:58;;;;;;;15.98;10.48;;;;;;;10.61;100.00;95214.72;10181770;29;20142;-70
2021/10/07 01:17:00;;;;;;;18.30;10.75;;;;;;;10.62;100.00;95210.97;10165530;29;20177;-71
2021/10/07 01:22:01;;;;;;;15.88;9.65;;;;;;;10.61;100.00;95220.09;10165670;29;20032;-70
2021/10/07 01:27:03;;;;;;;14.82;9.55;;;;;;;10.50;100.00;95197.72;10180644;29;20040;-70
2021/10/07 01:32:05;;;;;;;24.13;11.68;;;;;;;10.47;100.00;95203.63;10163104;29;20032;-69
2021/10/07 01:37:05;;;;;;;16.17;9.63;;;;;;;10.47;100.00;95194.75;10164768;29;20032;-70
2021/10/07 01:42:06;;;;;;;16.80;11.23;;;;;;;10.47;100.00;95189.38;10178886;29;20564;-72
2021/10/07 01:47:06;;;;;;;16.65;9.75;;;;;;;10.41;100.00;95205.47;10161648;29;20028;-70
2021/10/07 01:52:07;;;;;;;19.70;10.65;;;;;;;10.51;100.00;95201.22;10161924;29;20099;-70
2021/10/07 01:57:07;;;;;;;17.52;10.30;;;;;;;10.66;100.00;95195.94;10161772;29;20075;-70
2021/10/07 02:02:07;;;;;;;17.48;9.85;;;;;;;10.56;100.00;95204.75;10164709;29;20052;-69
2021/10/07 02:07:08;;;;;;;19.38;10.38;;;;;;;10.36;100.00;95199.25;10162025;29;20454;-71
2021/10/07 02:12:09;;;;;;;23.58;11.88;;;;;;;10.40;100.00;95193.09;10177709;29;20079;-68
2021/10/07 02:17:09;;;;;;;15.77;10.45;;;;;;;10.51;100.00;95198.56;10165192;29;20063;-70
2021/10/07 02:22:09;;;;;;;19.40;10.40;;;;;;;10.47;100.00;95189.38;10163111;29;20165;-71
2021/10/07 02:27:10;;;;;;;13.43;8.18;;;;;;;10.43;100.00;95181.03;10163038;29;20039;-71
2021/10/07 02:32:10;;;;;;;15.27;8.85;;;;;;;10.42;100.00;95176.72;10178461;29;20040;-68
2021/10/07 02:37:11;;;;;;;18.40;10.25;;;;;;;10.29;100.00;95175.28;10163875;29;20043;-69
2021/10/07 02:42:12;;;;;;;21.35;10.07;;;;;;;10.27;100.00;95164.78;10162418;29;20032;-72
2021/10/07 02:47:13;;;;;;;14.93;9.57;;;;;;;10.20;100.00;95166.91;10162977;29;20482;-71
2021/10/07 02:52:13;;;;;;;21.95;9.15;;;;;;;10.29;100.00;95166.41;10178427;29;20028;-68
2021/10/07 02:57:14;;;;;;;25.17;10.70;;;;;;;10.24;100.00;95167.19;10177923;29;20438;-72
2021/10/07 03:02:15;;;;;;;15.68;9.88;;;;;;;10.33;100.00;95149.50;10161974;29;20526;-72
2021/10/07 03:07:16;;;;;;;17.05;8.90;;;;;;;10.38;100.00;95146.88;10177701;29;20490;-69
2021/10/07 03:12:16;;;;;;;20.98;9.73;;;;;;;10.55;100.00;95153.97;10177804;29;20039;-68
2021/10/07 03:17:16;;;;;;;16.42;9.95;;;;;;;10.59;100.00;95152.34;10165842;29;20036;-70
2021/10/07 03:22:17;;;;;;;22.02;9.70;;;;;;;10.58;100.00;95151.53;10185870;29;20106;-72
2021/10/07 03:27:18;;;;;;;17.60;10.15;;;;;;;10.60;100.00;95153.97;10169337;29;20059;-69
2021/10/07 03:32:18;;;;;;;21.63;10.68;;;;;;;10.50;100.00;95162.00;10168656;29;20036;-75
2021/10/07 03:37:19;;;;;;;20.40;9.43;;;;;;;10.31;100.00;95173.16;10168983;29;20510;-69
2021/10/07 03:42:19;;;;;;;23.27;10.85;;;;;;;10.24;100.00;95177.94;10170276;29;20028;-69
2021/10/07 03:47:20;;;;;;;18.08;10.60;;;;;;;10.17;100.00;95167.44;10168935;29;20643;-70
2021/10/07 03:52:20;;;;;;;23.58;11.20;;;;;;;10.14;100.00;95180.56;10169330;29;20029;-69
2021/10/07 03:57:23;;;;;;;17.10;10.48;;;;;;;10.17;100.00;95177.34;10168287;29;20035;-69
2021/10/07 04:02:24;;;;;;;17.95;10.45;;;;;;;10.18;100.00;95170.91;10167448;29;20052;-71
2021/10/07 04:07:24;;;;;;;21.08;10.77;;;;;;;10.12;100.00;95167.41;10169150;29;20036;-69
2021/10/07 04:12:24;;;;;;;23.58;11.15;;;;;;;10.08;100.00;95159.03;10167969;29;20035;-69
2021/10/07 04:17:25;;;;;;;19.35;9.27;;;;;;;10.20;100.00;95133.84;10167114;29;20546;-69
2021/10/07 04:22:25;;;;;;;24.70;11.02;;;;;;;10.20;100.00;95134.69;10182911;29;20028;-68
2021/10/07 04:27:26;;;;;;;18.23;10.05;;;;;;;10.24;100.00;95129.56;10166296;29;20028;-68
2021/10/07 04:32:26;;;;;;;13.73;8.40;;;;;;;10.21;100.00;95124.72;10166837;29;20031;-69
2021/10/07 04:37:28;;;;;;;14.43;9.23;;;;;;;10.16;100.00;95120.16;10166442;29;20249;-68
2021/10/07 04:42:28;;;;;;;20.45;8.90;;;;;;;10.24;100.00;95121.50;10182546;29;20515;-69
2021/10/07 04:47:29;;;;;;;17.02;7.72;;;;;;;10.30;100.00;95133.09;10165547;29;20040;-69
2021/10/07 04:52:29;;;;;;;15.02;8.93;;;;;;;10.42;100.00;95142.63;10165333;29;20032;-69
2021/10/07 04:57:30;;;;;;;14.27;9.05;;;;;;;10.26;100.00;95147.06;10164684;29;20062;-70
2021/10/07 05:02:30;;;;;;;27.55;10.02;;;;;;;10.25;100.00;95142.75;10180624;29;20108;-72
2021/10/07 05:07:31;;;;;;;18.27;10.10;;;;;;;10.09;100.00;95136.50;10164945;29;20491;-69
2021/10/07 05:12:31;;;;;;;16.50;9.77;;;;;;;10.06;100.00;95146.94;10166198;29;20410;-71
2021/10/07 05:17:32;;;;;;;18.85;11.13;;;;;;;9.96;100.00;95153.03;10165890;29;20123;-73
2021/10/07 05:22:33;;;;;;;30.73;11.18;;;;;;;10.08;100.00;95158.25;10179870;29;20028;-69
2021/10/07 05:27:33;;;;;;;22.65;11.02;;;;;;;10.18;100.00;95146.75;10163705;29;20564;-73
2021/10/07 05:32:34;;;;;;;15.73;9.10;;;;;;;10.10;100.00;95145.34;10165121;29;20032;-69
2021/10/07 05:37:35;;;;;;;18.85;10.30;;;;;;;10.07;100.00;95129.75;10163560;29;20044;-68
2021/10/07 05:42:36;;;;;;;16.33;8.45;;;;;;;10.09;100.00;95139.19;10163107;29;20116;-69
2021/10/07 05:47:41;;;;;;;14.30;8.23;;;;;;;10.20;100.00;95155.34;10147921;29;20119;-72
2021/10/07 05:52:41;;;;;;;14.15;7.75;;;;;;;10.26;100.00;95148.94;10164139;29;20028;-68
2021/10/07 05:57:41;;;;;;;15.00;8.07;;;;;;;10.31;100.00;95146.28;10147353;29;20028;-70
2021/10/07 06:02:42;;;;;;;13.80;6.95;;;;;;;10.47;100.00;95128.38;10162289;29;20055;-69
2021/10/07 06:07:43;;;;;;;13.55;8.10;;;;;;;10.43;100.00;95146.91;10162852;29;20038;-70
2021/10/07 06:12:44;;;;;;;11.95;6.43;;;;;;;10.44;100.00;95171.91;10164458;29;20028;-70
2021/10/07 06:17:45;;;;;;;13.32;7.25;;;;;;;10.49;100.00;95155.00;10163114;29;20039;-69
2021/10/07 06:22:47;;;;;;;10.65;5.75;;;;;;;10.48;100.00;95166.81;10162991;29;20155;-69
2021/10/07 06:27:50;;;;;;;13.98;5.20;;;;;;;10.37;100.00;95171.34;10162856;29;20059;-68
2021/10/07 06:32:50;;;;;;;13.75;5.93;;;;;;;10.40;100.00;95176.97;10162382;29;20024;-75
2021/10/07 06:37:51;;;;;;;9.60;6.28;;;;;;;10.34;100.00;95178.03;10161802;29;20031;-76
2021/10/07 06:42:52;;;;;;;7.75;5.50;;;;;;;10.39;100.00;95183.41;10163820;29;20111;-69
2021/10/07 06:47:52;;;;;;;12.38;6.53;;;;;;;10.26;100.00;95186.56;10161749;29;20453;-70
2021/10/07 06:52:53;;;;;;;12.68;6.75;;;;;;;10.08;100.00;95185.88;10177611;29;20498;-69
2021/10/07 06:57:53;;;;;;;12.13;7.95;;;;;;;9.84;100.00;95187.34;10162780;29;20453;-71
2021/10/07 07:02:54;;;;;;;13.02;7.85;;;;;;;9.73;100.00;95194.50;10162158;29;20048;-69
2021/10/07 07:07:54;;;;;;;16.48;8.18;;;;;;;9.55;100.00;95188.44;10161338;29;20036;-70
2021/10/07 07:12:54;;;;;;;12.95;6.88;;;;;;;9.39;100.00;95194.72;10162577;29;20654;-72
2021/10/07 07:17:55;;;;;;;16.27;7.15;;;;;;;9.30;100.00;95194.38;10133976;29;20024;-69
2021/10/07 07:22:55;;;;;;;14.52;8.35;;;;;;;9.49;100.00;95194.00;10122497;29;20036;-70
2021/10/07 07:27:56;;;;;;;16.60;7.53;;;;;;;9.54;100.00;95192.22;10138002;29;20036;-68
2021/10/07 07:32:56;;;;;;;20.77;8.93;;;;;;;9.74;100.00;95196.13;10123514;29;20037;-68
2021/10/07 07:37:59;;;;;;;18.30;8.60;;;;;;;9.84;100.00;95206.16;10122381;29;20578;-68
2021/10/07 07:43:00;;;;;;;14.07;7.03;;;;;;;9.92;100.00;95202.97;10122141;29;20576;-68
2021/10/07 07:48:00;;;;;;;16.92;7.50;;;;;;;10.07;100.00;95219.22;10121640;29;20043;-70
2021/10/07 07:53:01;;;;;;;11.13;6.32;;;;;;;10.14;100.00;95218.97;10137577;29;20388;-71
2021/10/07 07:58:01;;;;;;;12.80;6.68;;;;;;;10.17;100.00;95218.47;10137300;29;20487;-70
2021/10/07 08:03:02;;;;;;;11.93;6.35;;;;;;;10.31;100.00;95224.19;10139696;29;20127;-73
2021/10/07 08:08:03;;;;;;;13.60;6.45;;;;;;;10.51;100.00;95217.38;10157524;29;20040;-68
2021/10/07 08:13:03;;;;;;;11.35;5.28;;;;;;;10.65;100.00;95213.13;10165961;29;20032;-68
2021/10/07 08:18:04;;;;;;;13.10;6.35;;;;;;;10.42;100.00;95209.78;10180341;29;20051;-70
2021/10/07 08:23:05;;;;;;;12.00;6.90;;;;;;;10.23;100.00;95222.00;10166178;29;20107;-69
2021/10/07 08:28:07;;;;;;;10.35;6.90;;;;;;;10.25;100.00;95212.59;10167100;28;20027;-68
2021/10/07 08:33:08;;;;;;;14.90;6.20;;;;;;;10.48;100.00;95217.84;10182662;28;20029;-71
2021/10/07 08:38:09;;;;;;;14.48;5.57;;;;;;;10.43;100.00;95211.38;10167663;29;20024;-69
2021/10/07 08:43:10;;;;;;;10.05;5.07;;;;;;;10.43;100.00;95211.38;10181994;29;20044;-69
2021/10/07 08:48:10;;;;;;;10.27;5.95;;;;;;;10.55;100.00;95200.44;10166952;29;20040;-70
2021/10/07 08:53:11;;;;;;;12.18;5.32;;;;;;;10.53;100.00;95226.75;10166577;29;20028;-68
2021/10/07 08:58:12;;;;;;;18.42;5.72;;;;;;;10.58;100.00;95209.88;10166701;29;20157;-68
2021/10/07 09:03:24;;;;;;;15.57;7.18;;;;;;;10.58;100.00;95207.19;10149562;29;20086;-72
2021/10/07 09:08:24;;;;;;;11.20;6.60;;;;;;;10.59;100.00;95216.84;10165892;29;20084;-68
2021/10/07 09:13:26;;;;;;;11.63;5.47;;;;;;;10.50;100.00;95208.47;10163849;29;20126;-72
2021/10/07 09:18:28;;;;;;;12.57;6.25;;;;;;;10.55;100.00;95213.88;10181128;29;20422;-71
2021/10/07 09:23:34;;;;;;;22.80;6.72;;;;;;;10.49;100.00;95216.78;10180553;29;20539;-71
2021/10/07 09:28:49;;;;;;;13.82;7.22;;;;;;;10.70;100.00;95218.53;10180113;29;20036;-71
2021/10/07 09:34:02;;;;;;;8.13;5.72;;;;;;;10.82;100.00;95212.13;10164087;29;20032;-75
2021/10/07 09:39:03;;;;;;;18.67;8.93;;;;;;;11.07;100.00;95209.50;10179913;29;20074;-72
2021/10/07 09:44:07;;;;;;;11.40;6.35;;;;;;;11.13;100.00;95220.31;10163832;29;20031;-69
2021/10/07 09:49:16;;;;;;;12.45;7.22;;;;;;;11.22;100.00;95216.00;10163701;29;20040;-69
2021/10/07 09:54:27;;;;;;;13.25;6.75;;;;;;;11.32;100.00;95207.97;10178229;29;20447;-72
2021/10/07 09:59:30;;;;;;;15.00;6.53;;;;;;;11.06;100.00;95213.28;10163031;29;20075;-68
2021/10/07 10:04:33;;;;;;;13.98;6.22;;;;;;;10.95;100.00;95203.56;10179681;29;20052;-68
2021/10/07 10:09:34;;;;;;;15.50;6.93;;;;;;;10.85;100.00;95211.59;10138147;29;20040;-72
2021/10/07 10:14:35;;;;;;;8.68;6.45;;;;;;;10.88;100.00;95192.25;10162695;29;20027;-69
2021/10/07 10:19:36;;;;;;;9.63;5.45;;;;;;;11.01;100.00;95199.00;10202649;29;20028;-71
2021/10/07 10:24:36;;;;;;;9.30;5.53;;;;;;;11.29;100.00;95192.38;10175815;29;20418;-69
2021/10/07 10:29:36;;;;;;;10.50;5.63;;;;;;;11.36;100.00;95186.72;10176348;29;20151;-67
2021/10/07 10:34:40;;;;;;;6.57;4.95;;;;;;;11.09;100.00;95193.94;10202804;29;20140;-73
2021/10/07 10:39:45;;;;;;;19.45;6.60;;;;;;;11.05;100.00;95187.47;10185547;29;20063;-69
2021/10/07 10:44:46;;;;;;;10.45;5.97;;;;;;;11.13;100.00;95177.25;10202440;29;20478;-69
2021/10/07 10:49:52;;;;;;;14.07;5.03;;;;;;;11.16;100.00;95164.06;10172967;29;20086;-68
2021/10/07 10:55:11;;;;;;;14.95;4.93;;;;;;;11.27;100.00;95178.34;10161683;29;20391;-69
2021/10/07 11:00:17;;;;;;;9.25;4.93;;;;;;;11.28;100.00;95170.03;10161306;29;20029;-70
2021/10/07 11:05:21;;;;;;;9.38;4.03;;;;;;;11.26;100.00;95165.97;10177470;29;20052;-70
2021/10/07 11:10:29;;;;;;;8.43;3.95;;;;;;;11.23;100.00;95158.44;10173460;29;20072;-69
2021/10/07 11:15:30;;;;;;;11.95;4.90;;;;;;;11.15;100.00;95150.88;10162606;29;20462;-69
2021/10/07 11:20:33;;;;;;;7.95;4.57;;;;;;;11.00;100.00;95149.00;10158189;29;20107;-69
2021/10/07 11:25:36;;;;;;;19.42;5.75;;;;;;;10.88;100.00;95141.94;10161581;29;20039;-68
2021/10/07 11:30:39;;;;;;;20.02;5.53;;;;;;;10.84;100.00;95137.38;10159790;29;20031;-68
2021/10/07 11:35:39;;;;;;;12.88;5.55;;;;;;;10.83;100.00;95135.75;10160086;29;20036;-70
2021/10/07 11:40:48;;;;;;;7.63;4.38;;;;;;;10.98;100.00;95135.81;10167411;29;20568;-70
2021/10/07 11:45:50;;;;;;;;;;;;;;;11.16;100.00;95134.47;10167826;29;20074;-76
2021/10/07 11:51:00;;;;;;;16.27;5.50;;;;;;;11.36;100.00;95132.88;10168533;29;20284;-69
2021/10/07 11:56:04;;;;;;;12.18;5.40;;;;;;;11.49;100.00;95142.34;10168584;29;20028;-69
2021/10/07 12:01:05;;;;;;;27.63;8.07;;;;;;;11.59;100.00;95143.13;10167362;29;20162;-69
2021/10/07 12:06:12;;;;;;;40.30;19.65;;;;;;;11.59;100.00;95148.50;10169024;29;20036;-76
2021/10/07 12:11:19;;;;;;;37.85;18.92;;;;;;;11.62;100.00;95148.00;10168956;29;20119;-69
2021/10/07 12:16:37;;;;;;;35.33;18.38;;;;;;;11.56;100.00;95157.13;10167291;29;20036;-72
2021/10/07 12:21:39;;;;;;;31.80;18.48;;;;;;;11.58;100.00;95159.56;10168494;29;20107;-71
2021/10/07 12:26:46;;;;;;;41.92;18.80;;;;;;;11.74;100.00;95158.47;10167809;29;20043;-75
2021/10/07 12:31:57;;;;;;;33.85;15.35;;;;;;;11.73;100.00;95146.09;10166703;29;20101;-75
2021/10/07 12:36:59;;;;;;;18.80;11.27;;;;;;;11.57;100.00;95157.97;10166615;29;20028;-69
2021/10/07 12:42:07;;;;;;;17.88;9.30;;;;;;;11.45;100.00;95145.53;10167938;29;20470;-69
2021/10/07 12:47:13;;;;;;;12.10;6.60;;;;;;;11.39;100.00;95153.91;10165674;29;20024;-72
2021/10/07 12:52:21;;;;;;;17.95;6.10;;;;;;;11.38;100.00;95145.00;10161475;29;20280;-69
2021/10/07 12:57:40;;;;;;;11.13;6.03;;;;;;;11.16;100.00;95150.63;10165986;29;20142;-73
2021/10/07 13:02:41;;;;;;;13.27;6.00;;;;;;;10.90;100.00;95155.16;10165342;29;20408;-73
2021/10/07 13:07:42;;;;;;;7.50;5.13;;;;;;;10.83;100.00;95160.78;10165973;29;20036;-70
2021/10/07 13:12:43;;;;;;;8.02;5.30;;;;;;;10.55;100.00;95151.28;10164800;29;20119;-73
2021/10/07 13:17:49;;;;;;;18.23;5.57;;;;;;;10.52;100.00;95160.66;10180367;29;20123;-71
2021/10/07 13:22:50;;;;;;;14.32;6.22;;;;;;;10.56;100.00;95163.63;10166592;29;20145;-69
2021/10/07 13:27:50;;;;;;;13.55;6.30;;;;;;;10.54;100.00;95155.03;10164000;29;20024;-70
2021/10/07 13:32:56;;;;;;;9.80;5.07;;;;;;;10.55;100.00;95156.66;10179857;29;20502;-69
2021/10/07 13:37:58;;;;;;;9.05;5.30;;;;;;;10.60;100.00;95159.34;10174711;29;20031;-75
2021/10/07 13:43:01;;;;;;;10.65;6.45;;;;;;;10.67;100.00;95151.84;10176043;29;20034;-69
2021/10/07 13:48:01;;;;;;;8.68;5.90;;;;;;;10.70;100.00;95154.00;10165692;29;20035;-73
2021/10/07 13:53:03;;;;;;;9.07;6.35;;;;;;;10.87;100.00;95150.28;10164620;29;20047;-70
2021/10/07 13:58:03;;;;;;;14.05;7.40;;;;;;;10.95;100.00;95147.09;10149044;29;20021;-70
2021/10/07 14:03:04;;;;;;;23.00;7.75;;;;;;;11.05;100.00;95144.44;10136966;29;20455;-70
2021/10/07 14:08:07;;;;;;;19.65;8.85;;;;;;;11.02;100.00;95138.75;10159303;29;20535;-70
2021/10/07 14:13:08;;;;;;;21.77;8.50;;;;;;;10.81;100.00;95137.91;10175160;29;20431;-69
2021/10/07 14:18:08;;;;;;;15.55;8.70;;;;;;;10.70;100.00;95145.94;10162403;29;20032;-74
2021/10/07 14:23:09;;;;;;;14.70;7.45;;;;;;;10.52;100.00;95147.22;10161164;29;20502;-73
2021/10/07 14:28:10;;;;;;;17.13;6.85;;;;;;;10.47;100.00;95132.97;10160005;29;20031;-74
2021/10/07 14:33:10;;;;;;;15.60;6.57;;;;;;;10.45;100.00;95133.19;10168898;29;20023;-69
2021/10/07 14:38:11;;;;;;;12.32;6.05;;;;;;;10.43;100.00;95132.66;10202201;29;20034;-75
2021/10/07 14:43:12;;;;;;;8.10;5.97;;;;;;;10.58;100.00;95137.31;10201207;29;20661;-68
2021/10/07 14:48:13;;;;;;;11.15;6.47;;;;;;;10.73;100.00;95137.34;10200444;29;20031;-70
2021/10/07 14:53:13;;;;;;;17.05;5.22;;;;;;;10.80;100.00;95147.88;10197814;29;20034;-74
2021/10/07 14:58:14;;;;;;;17.25;5.53;;;;;;;10.70;100.00;95147.81;10162999;29;20063;-70
2021/10/07 15:03:14;;;;;;;9.48;5.50;;;;;;;10.43;100.00;95136.16;10176622;29;20076;-69
2021/10/07 15:08:15;;;;;;;18.55;8.95;;;;;;;10.46;100.00;95144.78;10177507;29;20584;-70
2021/10/07 15:13:17;;;;;;;11.50;6.32;;;;;;;10.31;100.00;95140.91;10205735;29;20048;-76
2021/10/07 15:18:21;;;;;;;11.50;5.53;;;;;;;10.15;100.00;95141.91;10182343;29;20039;-72
2021/10/07 15:23:21;;;;;;;14.52;6.35;;;;;;;10.06;100.00;95147.75;10182000;29;20028;-72
2021/10/07 15:28:22;;;;;;;18.15;7.13;;;;;;;9.95;100.00;95148.75;10200490;29;20040;-69
2021/10/07 15:33:22;;;;;;;20.33;7.53;;;;;;;9.80;100.00;95154.03;10170664;29;20051;-69
2021/10/07 15:38:22;;;;;;;11.93;8.17;;;;;;;9.52;100.00;95167.50;10184508;29;20044;-69
2021/10/07 15:43:23;;;;;;;21.20;9.40;;;;;;;9.36;100.00;95173.78;10168277;29;20805;-69
2021/10/07 15:48:23;;;;;;;20.65;10.20;;;;;;;9.26;100.00;95179.06;10167532;29;20028;-69
2021/10/07 15:53:24;;;;;;;21.00;10.43;;;;;;;9.23;100.00;95180.38;10167989;29;20028;-70
2021/10/07 15:58:24;;;;;;;26.15;12.45;;;;;;;9.18;100.00;95188.38;10166215;29;20032;-72
2021/10/07 16:03:25;;;;;;;20.15;12.35;;;;;;;9.20;100.00;95191.63;10162851;29;20062;-69
2021/10/07 16:08:29;;;;;;;19.33;10.37;;;;;;;9.24;100.00;95187.38;10176368;29;20042;-69
2021/10/07 16:13:29;;;;;;;22.98;11.13;;;;;;;9.31;100.00;95198.69;10167765;29;20375;-68
2021/10/07 16:18:30;;;;;;;22.25;10.45;;;;;;;9.30;100.00;95197.06;10190999;29;20111;-73
2021/10/07 16:23:31;;;;;;;25.25;12.05;;;;;;;9.35;100.00;95201.66;10165643;29;20543;-73
2021/10/07 16:28:35;;;;;;;24.85;12.32;;;;;;;9.51;100.00;95198.06;10164983;29;20024;-68
2021/10/07 16:33:37;;;;;;;24.23;12.35;;;;;;;9.50;100.00;95196.47;10184305;29;20051;-69
2021/10/07 16:38:37;;;;;;;28.80;12.95;;;;;;;9.49;100.00;95202.06;10153457;29;20028;-72
2021/10/07 16:43:39;;;;;;;19.67;11.07;;;;;;;9.51;100.00;95210.69;10135330;29;20483;-74
2021/10/07 16:48:40;;;;;;;28.73;12.82;;;;;;;9.45;100.00;95214.41;10144976;29;20611;-68
2021/10/07 16:53:41;;;;;;;22.38;10.70;;;;;;;9.56;100.00;95211.53;10157027;29;20032;-74
2021/10/07 16:58:42;;;;;;;22.40;11.40;;;;;;;9.57;100.00;95205.13;10150675;29;20078;-69
2021/10/07 17:03:43;;;;;;;30.15;15.38;;;;;;;9.47;100.00;95207.69;10174255;29;20071;-69
2021/10/07 17:08:43;;;;;;;30.63;15.60;;;;;;;9.48;100.00;95212.00;10177350;29;20059;-68
2021/10/07 17:13:44;;;;;;;37.83;15.43;;;;;;;9.46;100.00;95211.47;10199207;29;20079;-69
2021/10/07 17:18:45;;;;;;;33.72;15.80;;;;;;;9.56;100.00;95219.59;10171255;29;20032;-68
2021/10/07 17:23:46;;;;;;;26.37;13.37;;;;;;;9.52;100.00;95212.31;10166738;29;20040;-71
2021/10/07 17:28:46;;;;;;;20.80;11.23;;;;;;;9.50;100.00;95222.47;10164886;29;20276;-71
2021/10/07 17:33:47;;;;;;;21.75;11.40;;;;;;;9.49;100.00;95213.63;10165313;29;20032;-74
2021/10/07 17:38:47;;;;;;;27.17;11.52;;;;;;;9.54;100.00;95215.53;10180319;29;20035;-74
2021/10/07 17:43:48;;;;;;;18.08;9.55;;;;;;;9.47;100.00;95214.94;10179821;29;20028;-69
2021/10/07 17:48:50;;;;;;;17.25;9.52;;;;;;;9.49;100.00;95232.41;10184991;29;20102;-72
2021/10/07 17:53:52;;;;;;;16.50;7.22;;;;;;;9.42;100.00;95231.81;10168192;29;20449;-69
2021/10/07 17:58:52;;;;;;;19.50;7.85;;;;;;;9.31;100.00;95238.94;10162366;29;20028;-69
2021/10/07 18:03:53;;;;;;;10.63;6.57;;;;;;;9.28;100.00;95242.13;10161845;29;20055;-75
2021/10/07 18:08:53;;;;;;;15.30;6.80;;;;;;;9.29;100.00;95242.91;10172470;29;20446;-71
2021/10/07 18:13:55;;;;;;;10.35;4.75;;;;;;;9.29;100.00;95238.34;10173877;29;20299;-69
2021/10/07 18:18:55;;;;;;;12.70;5.32;;;;;;;9.33;100.00;95238.69;10166147;29;20538;-69
2021/10/07 18:23:57;;;;;;;12.02;6.10;;;;;;;9.35;100.00;95248.09;10185954;29;20083;-67
2021/10/07 18:29:01;;;;;;;10.35;4.80;;;;;;;9.48;100.00;95248.75;10201066;29;20036;-69
2021/10/07 18:34:04;;;;;;;10.75;5.05;;;;;;;9.41;100.00;95247.06;10185768;29;20031;-69
2021/10/07 18:39:06;;;;;;;8.73;4.90;;;;;;;9.51;100.00;95237.50;10185518;29;20032;-69
2021/10/07 18:44:06;;;;;;;10.00;5.20;;;;;;;9.41;100.00;95236.34;10185003;29;20031;-73
2021/10/07 18:49:09;;;;;;;10.23;5.85;;;;;;;9.50;100.00;95241.25;10181344;29;20475;-70
2021/10/07 18:54:09;;;;;;;8.20;5.35;;;;;;;9.50;100.00;95249.31;10168831;29;20036;-74
2021/10/07 18:59:10;;;;;;;11.48;5.25;;;;;;;9.49;100.00;95237.78;10161331;29;20032;-69
2021/10/07 19:04:10;;;;;;;12.82;6.20;;;;;;;9.42;100.00;95245.22;10161668;29;20086;-70
2021/10/07 19:09:12;;;;;;;10.73;3.92;;;;;;;9.45;100.00;95236.66;10160938;29;20032;-71
2021/10/07 19:14:12;;;;;;;9.13;4.65;;;;;;;9.38;100.00;95236.06;10160809;29;20502;-71
2021/10/07 19:19:13;;;;;;;11.13;5.90;;;;;;;9.35;100.00;95240.03;10177776;29;20043;-69
2021/10/07 19:24:13;;;;;;;14.60;7.10;;;;;;;9.28;100.00;95242.13;10191700;29;20079;-71
2021/10/07 19:29:15;;;;;;;17.33;6.72;;;;;;;9.23;100.00;95234.81;10176306;29;20063;-71
2021/10/07 19:34:19;;;;;;;16.20;7.28;;;;;;;9.12;100.00;95233.09;10162101;29;20029;-73
2021/10/07 19:39:21;;;;;;;17.35;8.05;;;;;;;9.15;100.00;95237.13;10160711;29;20581;-73
2021/10/07 19:44:21;;;;;;;16.25;7.13;;;;;;;9.09;100.00;95241.63;10160471;29;20032;-72
2021/10/07 19:49:22;;;;;;;9.10;6.30;;;;;;;9.12;100.00;95254.53;10161054;29;20435;-71
2021/10/07 19:54:23;;;;;;;10.93;6.25;;;;;;;9.12;100.00;95264.47;10168593;29;20123;-71
2021/10/07 19:59:23;;;;;;;10.50;5.95;;;;;;;9.20;100.00;95258.66;10125707;29;20567;-68
2021/10/07 20:04:25;;;;;;;11.85;5.65;;;;;;;9.23;100.00;95260.84;10146769;29;20045;-69
2021/10/07 20:09:26;;;;;;;9.38;5.30;;;;;;;9.23;100.00;95260.84;10130182;29;20044;-72
2021/10/07 20:14:27;;;;;;;12.70;5.45;;;;;;;9.23;100.00;95250.09;10142795;29;20032;-69
2021/10/07 20:19:27;;;;;;;9.38;4.80;;;;;;;9.25;100.00;95245.28;10165021;29;20024;-71
2021/10/07 20:24:28;;;;;;;10.65;5.40;;;;;;;9.23;100.00;95242.06;10167424;29;20363;-69
2021/10/07 20:29:29;;;;;;;10.82;5.95;;;;;;;9.22;100.00;95256.53;10169539;29;20122;-70
2021/10/07 20:39:45;;;;;;;6.38;4.80;;;;;;;9.30;100.00;95255.28;10176643;29;20032;-68
2021/10/07 20:44:46;;;;;;;9.32;5.70;;;;;;;9.34;100.00;95262.56;10188619;29;20110;-68
2021/10/07 20:49:46;;;;;;;7.85;4.57;;;;;;;9.27;100.00;95267.31;10198120;29;20391;-75
2021/10/07 20:54:47;;;;;;;11.95;5.20;;;;;;;9.26;100.00;95267.56;10169239;29;20032;-74
2021/10/07 20:59:48;;;;;;;8.18;5.20;;;;;;;9.27;100.00;95270.00;10186865;29;20541;-75
2021/10/07 21:04:48;;;;;;;11.80;4.75;;;;;;;9.35;100.00;95269.56;10185896;29;20143;-69
2021/10/07 21:09:49;;;;;;;8.25;4.68;;;;;;;9.34;100.00;95264.44;10179438;29;20044;-70
2021/10/07 21:14:49;;;;;;;7.68;4.18;;;;;;;9.43;100.00;95272.84;10179594;29;20035;-68
2021/10/07 21:19:49;;;;;;;5.93;3.97;;;;;;;9.38;100.00;95274.41;10160665;29;20040;-69
2021/10/07 21:24:50;;;;;;;6.17;4.30;;;;;;;9.28;100.00;95274.31;10165163;29;20343;-69
2021/10/07 21:29:51;;;;;;;7.57;3.97;;;;;;;9.28;100.00;95274.31;10193382;29;20808;-69
2021/10/07 21:34:51;;;;;;;6.43;4.40;;;;;;;9.27;100.00;95275.38;10156950;29;20426;-71
2021/10/07 21:39:53;;;;;;;5.82;4.13;;;;;;;9.24;100.00;95286.59;10157282;29;20055;-74
2021/10/07 21:44:53;;;;;;;6.63;3.33;;;;;;;9.20;100.00;95282.78;10157045;28;20479;-69
2021/10/07 21:49:54;;;;;;;4.85;3.58;;;;;;;9.19;100.00;95276.59;10157323;28;20028;-76
2021/10/07 21:54:54;;;;;;;6.80;4.13;;;;;;;9.16;100.00;95281.69;10129318;29;20039;-70
2021/10/07 21:59:54;;;;;;;7.33;4.33;;;;;;;9.07;100.00;95273.28;10155296;29;20367;-70
2021/10/07 22:04:55;;;;;;;10.80;4.13;;;;;;;9.05;100.00;95278.06;10179545;29;20881;-69
2021/10/07 22:09:55;;;;;;;6.75;3.78;;;;;;;9.10;100.00;95279.97;10179308;29;20280;-76
2021/10/07 22:14:55;;;;;;;5.90;3.40;;;;;;;9.10;100.00;95280.81;10179831;29;20064;-70
2021/10/07 22:19:56;;;;;;;4.60;3.15;;;;;;;9.05;100.00;95272.69;10164259;29;20284;-76
2021/10/07 22:24:57;;;;;;;4.20;3.00;;;;;;;9.04;100.00;95271.91;10178868;29;20028;-70
2021/10/07 22:29:58;;;;;;;3.53;2.08;;;;;;;9.01;100.00;95272.38;10163372;29;20486;-70
2021/10/07 22:34:58;;;;;;;5.75;1.83;;;;;;;8.95;100.00;95273.38;10162888;29;20399;-71
2021/10/07 22:39:59;;;;;;;5.35;2.03;;;;;;;8.90;100.00;95276.00;10163846;29;20028;-71
2021/10/07 22:44:59;;;;;;;3.42;2.55;;;;;;;8.87;100.00;95271.13;10162458;29;20134;-71
2021/10/07 22:50:00;;;;;;;2.25;1.77;;;;;;;8.88;100.00;95270.88;10164216;29;20299;-70
2021/10/07 22:55:01;;;;;;;2.53;1.83;;;;;;;8.89;100.00;95251.06;10177354;29;20122;-72
2021/10/07 23:00:04;;;;;;;2.60;1.83;;;;;;;8.89;100.00;95260.97;10162871;29;20040;-72
2021/10/07 23:05:05;;;;;;;2.95;2.00;;;;;;;8.85;100.00;95251.81;10162075;29;20059;-69